Aeroporto :
LOGIN :

Iscrizione | Disclaimer

   EN    FR    IT 

 










Sommario :    VFR   VFR Marginale   IFR   IFR Intensivo   IFR Molto Intensivo
Visibilità : 
Base nubi : 
>= 8 km
>= 3000ft
5 / 8 km
1000 / 3000 ft
1500m / 5 km
500 / 1000 ft
800 / 1500m
200 / 500 ft
< 800m
< 200 ft
Simboli :   Temporali  Nebbia  Neve Forte  Precipitazioni Forti  Vento > 20 kt
SIGMETs :   Varie  Temporali  Ghiacco  Turbolenza  Onda orograficha  Ceneri Vulcaniche






- Altitudine del aeroporto : 935 ft


EBFS - Florennes

ULTIMO METAR :
  • 200825Z 32008KT 7000 -RADZ SCT004 BKN006 02/01 Q1028 YLO GRN TEMPO YLO

METARs OBSOLETI :
  • 200755Z 30009KT 7000 -RADZ SCT004 BKN006 02/01 Q1028 YLO GRN TEMPO YLO
  • 200753Z 31008KT 7000 -RADZ SCT004 BKN006 02/01 Q1028 YLO GRN TEMPO YLO
  • 200733Z 30006KT 9999 SCT006 BKN008 BKN020 02/01 Q1028 YLO WHT TEMPO YLO
  • 200723Z 30007KT 9999 FEW006 SCT008 BKN020 02/01 Q1028 GRN WHT TEMPO YLO
  • 200655Z 29009KT 7000 SCT004 BKN006 BKN009 02/01 Q1027 YLO GRN TEMPO YLO
  • 200604Z 27008KT 9999 FEW008 SCT010 BKN015 02/01 Q1027 GRN WHT TEMPO YLO
  • 200555Z 27008KT 9999 SCT012 BKN020 BKN040 02/01 Q1027 GRN WHT TEMPO GRN
  • 200552Z 28008KT 9999 SCT012 BKN020 BKN040 02/01 Q1027 GRN WHT TEMPO GRN
  • 200525Z AUTO 29008KT 9999 FEW006/// BKN049/// 02/01 Q1027 BLU

TAF COR TAF EBFS
Valido dal 20 a 07 ore il 20 a 16 ore UTC


200615Z 2007/2016 32010KT 9999 FEW005 SCT010 BKN020
TEMPO 2007/2010 SCT004 BKN006 BKN010
BECMG 2010/2012 SCT015 BKN020
TEMPO 2010/2016 32010G20KT 4000 -SHRA SCT010 BKN015



MetMap, La meteo Aeronautica in un colpo d'occhio ! - Copyright ORBIFLY Dicembre 2007 - Disclaimer

ORBIFLY MET'MAP TEAM :

Programmazione e sviluppo : Alexandra Zaïnal
Concezione : Baudouin d'Aumeries
Aiuto per la programmazione : Marc-Olivier Méhu
Supporto tecnico e logistico : Manuel Goepfert
Aiuto per la traduzione : Arnaldo La Scala

Contatto : metmap@orbifly.com




FONTI E CREDITI :

   NOAA